Terminal Aerodrome Forecast
Issued by NWS Cleveland, OH

Home | Current Version | Previous Version | Graphics & Text | Print | Product List | Glossary On
Versions: 1 2 3 4 5 6 7 8 9 10 11 12 13 14 15
000
FTUS41 KCLE 210523
TAFMFD
TAF
KMFD 210523Z 2106/2206 20015G22KT P6SM BKN100
      TEMPO 2110/2112 4SM -SHRA BR BKN025 OVC050
     FM211200 26012KT 5SM -SHRA BR OVC020
     FM211300 30012KT 3SM -SHRA BR OVC007
     FM211800 34011KT 6SM BR VCSH OVC012
     FM220100 03009KT P6SM VCSH OVC018=

USA.gov is the U.S. government's official web portal to all federal, state and local government web resources and services.